createdAt,value
2022-10-28T00:41:11.810Z,71
2022-10-28T01:01:12.791Z,70
2022-10-28T01:11:13.194Z,70
2022-10-28T01:21:13.777Z,69
2022-10-28T02:11:16.334Z,67
2022-10-28T02:31:18.154Z,68
2022-10-28T02:41:18.427Z,68
2022-10-28T02:51:18.560Z,69
2022-10-28T03:01:19.406Z,69
2022-10-28T03:31:21.424Z,70
2022-10-28T03:41:22.079Z,71
2022-10-28T03:51:22.760Z,71
2022-10-28T04:01:23.781Z,71
2022-10-28T04:11:24.344Z,71
2022-10-28T04:21:25.069Z,72
2022-10-28T04:31:25.157Z,72
2022-10-28T04:51:25.796Z,73
2022-10-28T05:01:26.294Z,73
2022-10-28T05:11:26.413Z,72
2022-10-28T05:21:26.862Z,72
2022-10-28T05:31:27.427Z,72
2022-10-28T06:01:29.468Z,73
2022-10-28T06:11:28.640Z,74
2022-10-28T07:01:34.207Z,75
2022-10-28T07:31:36.226Z,75
2022-10-28T07:41:37.329Z,74
2022-10-28T08:01:38.937Z,73
2022-10-28T08:11:39.157Z,73
2022-10-28T08:21:40.015Z,73
2022-10-28T08:31:40.137Z,72
2022-10-28T08:41:40.296Z,72
2022-10-28T08:51:40.421Z,71
2022-10-28T09:01:41.191Z,71
2022-10-28T09:11:41.860Z,70
2022-10-28T09:31:42.981Z,68
2022-10-28T09:41:43.265Z,67
2022-10-28T10:01:44.022Z,65
2022-10-28T11:11:48.126Z,61
2022-10-28T11:21:48.956Z,61
2022-10-28T11:31:49.243Z,61
2022-10-28T11:41:49.847Z,61
2022-10-28T11:51:50.051Z,61
2022-10-28T12:01:50.335Z,61
2022-10-28T12:11:50.904Z,60
2022-10-28T12:21:50.932Z,56
2022-10-28T12:31:51.062Z,56
2022-10-28T12:41:51.962Z,55
2022-10-28T12:51:52.778Z,56
2022-10-28T13:01:53.175Z,55
2022-10-28T13:11:53.980Z,56
2022-10-28T13:21:54.653Z,56
2022-10-28T13:31:55.322Z,57
2022-10-28T13:41:56.149Z,56
2022-10-28T13:51:56.386Z,56
2022-10-28T14:02:02.099Z,56
2022-10-28T14:11:57.929Z,56
2022-10-28T14:31:58.986Z,57
2022-10-28T14:41:59.923Z,58
2022-10-28T15:22:02.595Z,64
2022-10-28T15:42:03.657Z,64
2022-10-28T15:52:04.413Z,65
2022-10-28T16:42:07.234Z,67
2022-10-28T17:22:10.476Z,69
2022-10-28T17:32:09.777Z,70
2022-10-28T17:42:10.741Z,70
2022-10-28T17:52:11.533Z,70
2022-10-28T18:02:12.072Z,71
2022-10-28T18:12:12.980Z,71
2022-10-28T18:22:14.065Z,72
2022-10-28T18:32:14.443Z,72
2022-10-28T18:52:15.697Z,74
2022-10-28T19:02:16.377Z,74
2022-10-28T19:12:16.393Z,75
2022-10-28T19:22:17.456Z,75
2022-10-28T19:52:19.126Z,76
2022-10-28T20:02:19.666Z,76
2022-10-28T20:12:19.813Z,76
2022-10-28T20:22:20.265Z,77
2022-10-28T20:32:20.557Z,77
2022-10-28T20:42:21.250Z,77
2022-10-28T21:22:23.271Z,79
2022-10-28T21:32:23.505Z,80
2022-10-28T21:42:23.969Z,81
2022-10-28T21:52:24.823Z,81
2022-10-28T22:32:26.248Z,84
2022-10-28T22:42:28.312Z,85
2022-10-28T22:52:28.267Z,86
2022-10-28T22:55:09.664Z,86
2022-10-28T23:02:37.631Z,86
2022-10-28T23:22:37.982Z,87
2022-10-28T23:42:39.894Z,89
2022-10-28T23:52:39.021Z,89
